Time;durP1;ratioP1;P1;durP2;ratioP2;P2;SDS_P1;SDS_P2;PMS_P1;PMS_P2;Temp;Humidity;BMP_temperature;BMP_pressure;BME280_temperature;BME280_humidity;BME280_pressure;Samples;Min_cycle;Max_cycle;Signal;HPM_P1;HPM_P2
2023/03/07 00:02:14;;;;;;;0.00;0.00;;;;;;;6.69;59.46;99772.81;7351738;19;20494;-58
2023/03/07 00:04:43;;;;;;;0.05;0.05;;;;;;;6.68;59.00;99773.72;7348145;19;20755;-58
2023/03/07 00:07:09;;;;;;;0.00;0.00;;;;;;;6.65;59.08;99779.84;7353614;19;20018;-58
2023/03/07 00:09:35;;;;;;;0.00;0.00;;;;;;;6.63;59.09;99765.19;7355470;19;20034;-58
2023/03/07 00:12:00;;;;;;;0.00;0.00;;;;;;;6.62;59.39;99771.28;7356922;19;20870;-58
2023/03/07 00:14:25;;;;;;;0.00;0.00;;;;;;;6.45;59.30;99743.97;7354887;19;20014;-58
2023/03/07 00:16:51;;;;;;;0.00;0.00;;;;;;;6.58;58.98;99770.47;7355629;19;20021;-58
2023/03/07 00:19:17;;;;;;;0.00;0.00;;;;;;;6.57;59.55;99778.28;7356042;19;20110;-58
2023/03/07 00:21:43;;;;;;;0.00;0.00;;;;;;;6.56;59.14;99763.63;7355864;19;20015;-58
2023/03/07 00:24:09;;;;;;;0.00;0.00;;;;;;;6.48;59.16;99761.19;7354395;19;20043;-58
2023/03/07 00:26:38;;;;;;;0.00;0.00;;;;;;;6.50;59.34;99762.88;7343970;19;21052;-58
2023/03/07 00:29:06;;;;;;;0.10;0.10;;;;;;;6.28;59.05;99722.69;7353218;19;20027;-58
2023/03/07 00:31:31;;;;;;;0.00;0.00;;;;;;;6.45;58.86;99753.47;7352965;19;20396;-58
2023/03/07 00:33:57;;;;;;;0.00;0.00;;;;;;;6.43;59.01;99753.50;7356618;19;20003;-58
2023/03/07 00:36:23;;;;;;;0.10;0.10;;;;;;;6.42;59.25;99746.59;7356059;19;20007;-58
2023/03/07 00:38:49;;;;;;;0.00;0.00;;;;;;;6.39;59.12;99741.50;7351756;19;20015;-59
2023/03/07 00:41:17;;;;;;;0.00;0.00;;;;;;;6.38;59.13;99744.97;7356339;19;20381;-58
2023/03/07 00:43:43;;;;;;;;;;;;;;;6.37;59.06;99743.25;7351256;19;20040;-58
2023/03/07 00:46:08;;;;;;;0.00;0.00;;;;;;;6.33;58.86;99746.78;7356218;19;20293;-58
2023/03/07 00:48:36;;;;;;;0.00;0.00;;;;;;;6.29;59.16;99739.97;7351099;19;20390;-59
2023/03/07 00:51:02;;;;;;;0.10;0.10;;;;;;;6.26;59.05;99747.81;7356299;19;20703;-58
2023/03/07 00:53:28;;;;;;;0.10;0.10;;;;;;;6.12;59.14;99727.34;7354991;19;20304;-58
2023/03/07 00:56:05;;;;;;;0.10;0.10;;;;;;;6.22;59.43;99738.38;7354405;19;20529;-58
2023/03/07 00:58:32;;;;;;;0.00;0.00;;;;;;;6.17;59.34;99740.22;7352567;19;20018;-58
2023/03/07 01:00:58;;;;;;;0.00;0.00;;;;;;;6.13;59.16;99744.63;7353726;19;20025;-58
2023/03/07 01:03:24;;;;;;;0.00;0.00;;;;;;;6.13;59.52;99749.81;7354552;19;20024;-58
2023/03/07 01:05:50;;;;;;;0.00;0.00;;;;;;;6.12;59.61;99744.63;7354192;19;20053;-59
2023/03/07 01:08:17;;;;;;;0.10;0.10;;;;;;;6.10;59.16;99743.84;7350334;19;20035;-59
2023/03/07 01:10:42;;;;;;;0.00;0.00;;;;;;;6.06;59.13;99742.19;7352945;19;20530;-59
2023/03/07 01:13:08;;;;;;;0.00;0.00;;;;;;;5.93;59.35;99724.28;7354376;19;20010;-59
2023/03/07 01:15:34;;;;;;;0.00;0.00;;;;;;;6.05;59.22;99740.47;7354497;19;20010;-58
2023/03/07 01:18:00;;;;;;;0.00;0.00;;;;;;;6.02;59.40;99740.53;7352628;19;20019;-59
2023/03/07 01:20:25;;;;;;;0.00;0.00;;;;;;;6.01;59.48;99746.59;7354327;19;20014;-58
2023/03/07 01:22:51;;;;;;;0.00;0.00;;;;;;;5.80;59.26;99709.81;7354228;19;20014;-58
2023/03/07 01:25:16;;;;;;;0.00;0.00;;;;;;;5.93;59.40;99736.34;7351450;19;20018;-58
2023/03/07 01:27:41;;;;;;;0.00;0.00;;;;;;;5.93;59.33;99738.94;7352907;19;20015;-58
2023/03/07 01:30:08;;;;;;;0.10;0.10;;;;;;;5.91;59.23;99739.00;7353417;19;20487;-58
2023/03/07 01:32:34;;;;;;;0.10;0.10;;;;;;;5.89;59.50;99738.16;7351608;19;20031;-58
2023/03/07 01:34:59;;;;;;;0.10;0.10;;;;;;;5.86;58.94;99730.41;7352129;19;20011;-58
2023/03/07 01:37:25;;;;;;;0.00;0.00;;;;;;;5.83;59.36;99727.91;7352438;19;20010;-58
2023/03/07 01:39:51;;;;;;;0.00;0.00;;;;;;;5.82;59.40;99728.75;7359365;19;20011;-58
2023/03/07 01:42:17;;;;;;;0.00;0.00;;;;;;;5.66;59.24;99714.41;7358292;19;20569;-58
2023/03/07 01:45:04;;;;;;;0.00;0.00;;;;;;;5.76;59.04;99723.69;7361331;19;20019;-58
2023/03/07 01:47:29;;;;;;;0.00;0.00;;;;;;;5.72;59.11;99729.81;7358460;19;20078;-58
2023/03/07 01:49:56;;;;;;;0.00;0.00;;;;;;;5.67;59.05;99718.69;7356108;19;20082;-59
2023/03/07 01:52:32;;;;;;;0.00;0.00;;;;;;;5.66;59.32;99727.34;7357881;19;20019;-58
2023/03/07 01:55:04;;;;;;;0.00;0.00;;;;;;;5.61;59.54;99718.81;7359972;19;20015;-58
2023/03/07 01:57:34;;;;;;;0.00;0.00;;;;;;;5.55;59.46;99717.19;7359599;19;20018;-58
2023/03/07 02:00:07;;;;;;;0.00;0.00;;;;;;;5.52;59.24;99719.81;7356853;19;20027;-58
2023/03/07 02:02:34;;;;;;;0.00;0.00;;;;;;;5.46;59.42;99715.59;7358967;19;20336;-59
2023/03/07 02:05:31;;;;;;;0.00;0.00;;;;;;;5.43;59.42;99715.69;7364863;19;20363;-58
2023/03/07 02:07:59;;;;;;;;;;;;;;;5.39;59.38;99714.03;7259531;19;2004289;-58
2023/03/07 02:10:26;;;;;;;0.00;0.00;;;;;;;5.35;59.31;99717.53;7336933;19;19919;-59
2023/03/07 02:12:53;;;;;;;0.00;0.00;;;;;;;5.30;59.07;99714.16;7264683;19;20361;-59
2023/03/07 02:15:18;;;;;;;0.00;0.00;;;;;;;5.24;59.30;99714.28;7355311;19;20425;-59
2023/03/07 02:17:45;;;;;;;0.00;0.00;;;;;;;5.19;59.59;99709.19;7355405;19;20023;-58
2023/03/07 02:20:19;;;;;;;0.00;0.00;;;;;;;5.16;59.45;99700.59;7351040;19;20014;-58
2023/03/07 02:22:47;;;;;;;0.00;0.00;;;;;;;5.11;59.71;99707.59;7359436;19;20011;-58
2023/03/07 02:25:27;;;;;;;0.10;0.10;;;;;;;5.09;59.79;99699.00;7362324;19;20586;-58
2023/03/07 02:27:55;;;;;;;0.00;0.00;;;;;;;5.05;59.48;99698.19;7356112;19;20041;-59
2023/03/07 02:30:21;;;;;;;0.08;0.08;;;;;;;5.01;59.67;99690.50;7360670;19;20802;-58
2023/03/07 02:32:46;;;;;;;0.10;0.10;;;;;;;4.81;59.51;99665.81;7358410;19;20011;-59
2023/03/07 02:35:15;;;;;;;0.00;0.00;;;;;;;4.92;59.60;99681.19;7360685;19;20046;-58
2023/03/07 02:37:44;;;;;;;0.00;0.00;;;;;;;4.90;59.82;99683.78;7361686;19;20112;-58
2023/03/07 02:40:12;;;;;;;0.10;0.10;;;;;;;4.89;59.82;99687.25;7358244;19;20006;-58
2023/03/07 02:42:40;;;;;;;0.00;0.00;;;;;;;4.76;59.58;99665.03;7355442;19;20039;-58
2023/03/07 02:45:09;;;;;;;0.00;0.00;;;;;;;4.83;59.51;99691.66;7360001;19;20021;-58
2023/03/07 02:47:34;;;;;;;0.00;0.00;;;;;;;4.81;59.66;99694.25;7361278;19;20039;-59
2023/03/07 02:50:00;;;;;;;0.10;0.10;;;;;;;4.81;59.71;99699.44;7356787;19;20003;-59
2023/03/07 02:52:27;;;;;;;0.10;0.10;;;;;;;4.78;59.83;99694.31;7358097;19;20042;-59
2023/03/07 02:54:53;;;;;;;0.08;0.08;;;;;;;4.77;60.06;99691.78;7361216;19;20030;-58
2023/03/07 02:57:18;;;;;;;0.00;0.00;;;;;;;4.61;60.02;99673.00;7358609;19;20082;-58
2023/03/07 02:59:44;;;;;;;0.00;0.00;;;;;;;4.73;59.86;99693.53;7347802;19;20026;-58
2023/03/07 03:02:10;;;;;;;0.00;0.00;;;;;;;4.71;60.13;99682.34;7359201;19;20017;-58
2023/03/07 03:04:35;;;;;;;0.00;0.00;;;;;;;4.69;59.68;99689.28;7356146;19;20047;-57
2023/03/07 03:07:00;;;;;;;0.10;0.10;;;;;;;4.66;60.16;99684.16;7354808;19;20892;-59
2023/03/07 03:09:26;;;;;;;0.00;0.00;;;;;;;4.64;60.15;99685.91;7360127;19;20043;-58
2023/03/07 03:11:51;;;;;;;0.10;0.10;;;;;;;4.61;59.67;99681.66;7354706;19;20019;-58
2023/03/07 03:14:17;;;;;;;0.10;0.10;;;;;;;4.57;59.54;99679.13;7358696;19;20006;-58
2023/03/07 03:16:42;;;;;;;0.00;0.00;;;;;;;4.53;59.75;99675.72;7356116;19;20020;-59
2023/03/07 03:19:08;;;;;;;0.00;0.00;;;;;;;4.40;59.57;99667.28;7355896;19;20558;-58
2023/03/07 03:21:33;;;;;;;0.00;0.00;;;;;;;4.48;59.66;99674.09;7356581;19;20019;-58
2023/03/07 03:24:04;;;;;;;0.00;0.00;;;;;;;4.46;59.80;99681.00;7358749;19;20019;-58
2023/03/07 03:26:29;;;;;;;0.03;0.03;;;;;;;4.40;59.81;99681.94;7355538;19;20006;-58
2023/03/07 03:28:55;;;;;;;0.10;0.10;;;;;;;4.34;59.95;99682.88;7359595;19;21340;-57
2023/03/07 03:31:20;;;;;;;0.00;0.00;;;;;;;4.21;59.94;99663.28;7355980;19;20006;-58
2023/03/07 03:33:48;;;;;;;0.10;0.10;;;;;;;4.30;59.75;99691.53;7360461;19;20021;-58
2023/03/07 03:36:15;;;;;;;0.00;0.00;;;;;;;4.28;59.87;99692.47;7354647;19;20012;-58
2023/03/07 03:38:41;;;;;;;0.10;0.10;;;;;;;4.23;59.71;99689.09;7352184;19;20581;-58
2023/03/07 03:41:10;;;;;;;0.10;0.10;;;;;;;4.20;59.96;99689.97;7358806;19;20010;-58
2023/03/07 03:43:35;;;;;;;0.00;0.00;;;;;;;4.18;59.79;99686.56;7352902;19;20655;-58
2023/03/07 03:46:01;;;;;;;0.00;0.00;;;;;;;4.14;60.14;99679.72;7356881;19;22484;-58
2023/03/07 03:48:27;;;;;;;0.00;0.00;;;;;;;4.00;59.92;99666.09;7353441;19;20349;-58
2023/03/07 03:51:04;;;;;;;0.10;0.10;;;;;;;4.09;59.65;99681.50;7357833;19;20010;-57
2023/03/07 03:53:31;;;;;;;0.10;0.10;;;;;;;4.05;59.74;99687.56;7354716;19;20786;-58
2023/03/07 03:56:01;;;;;;;0.10;0.10;;;;;;;4.02;59.57;99685.03;7351444;19;20029;-58
2023/03/07 03:58:27;;;;;;;0.10;0.10;;;;;;;3.94;59.90;99676.53;7353239;19;20055;-57
2023/03/07 04:00:52;;;;;;;0.00;0.00;;;;;;;3.90;59.98;99666.25;7354661;19;20074;-59
2023/03/07 04:03:18;;;;;;;0.10;0.10;;;;;;;3.87;59.90;99666.28;7357291;19;20010;-58
2023/03/07 04:05:43;;;;;;;0.10;0.10;;;;;;;3.84;59.92;99666.31;7341635;19;20424;-57
2023/03/07 04:08:09;;;;;;;0.00;0.00;;;;;;;3.80;60.13;99654.31;7355074;19;20018;-58
2023/03/07 04:10:34;;;;;;;0.00;0.00;;;;;;;3.77;60.02;99659.50;7358529;19;20043;-57
2023/03/07 04:12:59;;;;;;;0.00;0.00;;;;;;;3.73;59.86;99657.81;7355200;19;20011;-58
2023/03/07 04:15:25;;;;;;;0.10;0.10;;;;;;;3.70;60.17;99657.88;7358457;19;20018;-59
2023/03/07 04:17:50;;;;;;;0.00;0.00;;;;;;;3.66;60.15;99650.19;7356610;19;20010;-58
2023/03/07 04:20:16;;;;;;;0.10;0.10;;;;;;;3.64;60.16;99650.19;7342884;19;20586;-58
2023/03/07 04:22:42;;;;;;;0.10;0.10;;;;;;;3.60;59.91;99651.13;7357691;19;20028;-58
2023/03/07 04:25:08;;;;;;;0.00;0.00;;;;;;;3.50;60.29;99639.19;7357951;19;20014;-58
2023/03/07 04:27:34;;;;;;;0.00;0.00;;;;;;;3.53;59.86;99650.31;7356420;19;20002;-58
2023/03/07 04:29:59;;;;;;;0.00;0.00;;;;;;;3.49;60.29;99647.78;7357348;19;20466;-58
2023/03/07 04:32:25;;;;;;;0.00;0.00;;;;;;;3.45;60.06;99652.13;7360347;19;20098;-58
2023/03/07 04:34:51;;;;;;;0.00;0.00;;;;;;;3.28;60.27;99634.22;7355897;19;20014;-58
2023/03/07 04:37:16;;;;;;;0.10;0.10;;;;;;;3.38;60.06;99651.31;7357535;19;20014;-59
2023/03/07 04:39:41;;;;;;;0.03;0.03;;;;;;;3.35;60.18;99661.69;7354723;19;20356;-58
2023/03/07 04:42:07;;;;;;;0.10;0.10;;;;;;;3.31;60.42;99666.91;7355863;19;20840;-58
2023/03/07 04:44:32;;;;;;;0.00;0.00;;;;;;;3.28;60.49;99670.34;7356687;19;20554;-58
2023/03/07 04:46:58;;;;;;;0.00;0.00;;;;;;;3.16;60.53;99660.16;7356404;19;20119;-59
2023/03/07 04:49:23;;;;;;;0.00;0.00;;;;;;;3.20;60.37;99672.16;7354758;19;20010;-58
2023/03/07 04:51:49;;;;;;;0.00;0.00;;;;;;;3.12;60.75;99661.06;7356874;19;20031;-58
2023/03/07 04:54:14;;;;;;;0.00;0.00;;;;;;;2.99;60.24;99634.53;7355494;19;20015;-58
2023/03/07 04:56:39;;;;;;;0.00;0.00;;;;;;;3.09;60.43;99655.91;7355422;19;20029;-58
2023/03/07 04:59:05;;;;;;;0.00;0.00;;;;;;;3.07;60.44;99668.81;7358460;19;20019;-58
2023/03/07 05:01:30;;;;;;;0.00;0.00;;;;;;;3.00;60.67;99656.03;7358928;19;20022;-57
2023/03/07 05:03:56;;;;;;;0.10;0.10;;;;;;;3.03;60.72;99658.56;7358867;19;20562;-57
2023/03/07 05:06:21;;;;;;;0.00;0.00;;;;;;;2.99;60.42;99656.84;7358650;19;20018;-58
2023/03/07 05:08:46;;;;;;;0.00;0.00;;;;;;;2.95;60.58;99668.09;7358781;19;20010;-58
2023/03/07 05:11:13;;;;;;;0.00;0.00;;;;;;;2.93;60.67;99657.78;7357486;19;20059;-57
2023/03/07 05:13:38;;;;;;;0.00;0.00;;;;;;;2.91;60.50;99672.41;7361055;19;20030;-58
2023/03/07 05:16:04;;;;;;;0.00;0.00;;;;;;;2.88;60.73;99666.41;7353727;19;20021;-58
2023/03/07 05:18:30;;;;;;;0.00;0.00;;;;;;;2.84;60.90;99674.19;7358983;19;21335;-58
2023/03/07 05:20:55;;;;;;;0.10;0.10;;;;;;;2.79;60.71;99670.78;7357246;19;20019;-58
2023/03/07 05:23:21;;;;;;;0.00;0.00;;;;;;;2.79;60.65;99675.94;7359763;19;25513;-59
2023/03/07 05:25:46;;;;;;;0.10;0.10;;;;;;;2.77;61.08;99675.09;7354918;19;20028;-58
2023/03/07 05:28:12;;;;;;;0.10;0.10;;;;;;;2.71;60.77;99664.84;7357928;19;20044;-58
2023/03/07 05:30:37;;;;;;;0.10;0.10;;;;;;;2.73;60.58;99663.09;7354015;19;20031;-58
2023/03/07 05:33:03;;;;;;;0.10;0.10;;;;;;;2.71;60.87;99654.53;7357057;19;20018;-58
2023/03/07 05:35:28;;;;;;;0.00;0.00;;;;;;;2.69;61.07;99653.69;7355790;19;20043;-58
2023/03/07 05:37:54;;;;;;;0.10;0.10;;;;;;;2.67;61.19;99649.41;7356678;19;20024;-58
2023/03/07 05:40:19;;;;;;;0.10;0.10;;;;;;;2.66;60.81;99653.69;7358303;19;20006;-57
2023/03/07 05:42:45;;;;;;;0.00;0.00;;;;;;;2.65;60.89;99652.00;7357659;19;20010;-58
2023/03/07 05:45:10;;;;;;;0.10;0.10;;;;;;;2.64;61.04;99652.88;7357386;19;20043;-58
2023/03/07 05:47:37;;;;;;;0.00;0.00;;;;;;;2.62;61.38;99662.31;7350217;19;20007;-58
2023/03/07 05:50:04;;;;;;;0.00;0.00;;;;;;;2.63;61.06;99653.72;7356566;19;20110;-58
2023/03/07 05:52:29;;;;;;;0.00;0.00;;;;;;;2.52;61.39;99656.38;7357517;19;20007;-58
2023/03/07 05:54:54;;;;;;;0.10;0.10;;;;;;;2.60;61.03;99669.22;7353630;19;20014;-58
2023/03/07 05:57:21;;;;;;;0.00;0.00;;;;;;;2.58;61.41;99668.34;7358076;19;20376;-58
2023/03/07 05:59:46;;;;;;;0.00;0.00;;;;;;;2.60;61.37;99653.75;7352816;19;20023;-58
2023/03/07 06:02:12;;;;;;;0.10;0.10;;;;;;;2.60;61.32;99658.91;7354986;19;20006;-59
2023/03/07 06:04:38;;;;;;;0.10;0.10;;;;;;;2.60;61.52;99658.91;7357195;19;20459;-58
2023/03/07 06:07:03;;;;;;;0.10;0.10;;;;;;;2.59;61.10;99659.78;7353551;19;20013;-58
2023/03/07 06:09:28;;;;;;;0.00;0.00;;;;;;;2.54;61.42;99648.66;7356163;19;20018;-58
2023/03/07 06:11:54;;;;;;;0.10;0.10;;;;;;;2.58;61.41;99660.63;7357723;19;20081;-58
2023/03/07 06:14:19;;;;;;;0.00;0.00;;;;;;;2.56;61.24;99655.50;7355825;19;20036;-58
2023/03/07 06:16:45;;;;;;;0.10;0.10;;;;;;;2.55;61.38;99650.34;7354660;19;20031;-58
2023/03/07 06:19:10;;;;;;;0.03;0.03;;;;;;;2.54;61.70;99659.81;7354672;19;20347;-58
2023/03/07 06:21:36;;;;;;;0.00;0.00;;;;;;;2.52;61.52;99663.25;7355821;19;20010;-58
2023/03/07 06:24:02;;;;;;;0.00;0.00;;;;;;;2.52;61.54;99655.50;7358355;19;20006;-58
2023/03/07 06:26:27;;;;;;;0.00;0.00;;;;;;;2.52;61.58;99660.66;7365064;19;20014;-58
2023/03/07 06:28:53;;;;;;;0.10;0.10;;;;;;;2.51;61.56;99669.28;7362193;19;20022;-58
2023/03/07 06:31:19;;;;;;;0.00;0.00;;;;;;;2.52;61.78;99660.66;7360307;19;20017;-59
2023/03/07 06:33:46;;;;;;;0.10;0.10;;;;;;;2.51;61.52;99653.81;7360075;19;20014;-57
2023/03/07 06:36:14;;;;;;;0.00;0.00;;;;;;;2.51;61.78;99652.09;7361932;19;20727;-58
2023/03/07 06:38:40;;;;;;;0.00;0.00;;;;;;;2.50;61.57;99652.09;7363448;19;20914;-58
2023/03/07 06:41:06;;;;;;;0.00;0.00;;;;;;;2.50;61.58;99654.69;7362293;19;20149;-58
2023/03/07 06:43:32;;;;;;;0.00;0.00;;;;;;;2.49;61.62;99655.56;7362403;19;20822;-58
2023/03/07 06:45:57;;;;;;;0.10;0.10;;;;;;;2.49;61.54;99660.72;7360319;19;20059;-58
2023/03/07 06:48:23;;;;;;;0.10;0.10;;;;;;;2.47;61.86;99652.13;7360704;19;20040;-58
2023/03/07 06:50:48;;;;;;;0.05;0.05;;;;;;;2.33;61.32;99635.03;7364084;19;20034;-58
2023/03/07 06:53:14;;;;;;;0.10;0.10;;;;;;;2.46;61.48;99655.56;7363467;19;20011;-58
2023/03/07 06:55:39;;;;;;;0.00;0.00;;;;;;;2.46;61.70;99655.56;7358666;19;20022;-58
2023/03/07 06:58:05;;;;;;;0.10;0.10;;;;;;;2.46;61.36;99676.19;7350457;19;20056;-58
2023/03/07 07:00:30;;;;;;;0.08;0.08;;;;;;;2.44;61.34;99683.06;7357327;19;20101;-58
2023/03/07 07:02:56;;;;;;;0.00;0.00;;;;;;;2.44;61.41;99685.66;7359000;19;20022;-59
2023/03/07 07:05:22;;;;;;;0.10;0.10;;;;;;;2.44;61.51;99690.81;7359313;19;20014;-58
2023/03/07 07:07:47;;;;;;;0.10;0.10;;;;;;;2.28;61.59;99672.84;7356638;19;20022;-59
2023/03/07 07:10:13;;;;;;;0.10;0.10;;;;;;;2.42;61.35;99695.09;7360208;19;20079;-58
2023/03/07 07:12:38;;;;;;;0.10;0.10;;;;;;;2.42;61.61;99682.22;7352846;19;20019;-58
2023/03/07 07:15:05;;;;;;;0.00;0.00;;;;;;;2.37;61.69;99681.38;7360451;19;20095;-58
2023/03/07 07:17:31;;;;;;;0.00;0.00;;;;;;;2.18;61.51;99650.59;7358010;19;20010;-58
2023/03/07 07:19:57;;;;;;;0.00;0.00;;;;;;;2.38;61.82;99683.09;7359858;19;20007;-58
2023/03/07 07:22:23;;;;;;;0.10;0.10;;;;;;;2.31;61.79;99672.81;7358085;19;20043;-58
2023/03/07 07:24:49;;;;;;;0.00;0.00;;;;;;;2.20;61.78;99663.44;7359909;19;20007;-58
2023/03/07 07:27:14;;;;;;;0.10;0.10;;;;;;;2.32;61.78;99689.13;7357060;19;20049;-59
2023/03/07 07:29:39;;;;;;;0.10;0.10;;;;;;;2.30;61.31;99691.72;7360761;19;20506;-58
2023/03/07 07:32:06;;;;;;;0.10;0.10;;;;;;;2.29;61.49;99694.31;7356061;19;20017;-58
2023/03/07 07:34:31;;;;;;;0.00;0.00;;;;;;;2.15;61.56;99686.66;7358152;19;20022;-58
2023/03/07 07:36:58;;;;;;;0.00;0.00;;;;;;;2.24;61.57;99711.50;7353737;19;20949;-58
2023/03/07 07:39:23;;;;;;;0.08;0.08;;;;;;;2.21;61.70;99712.38;7360274;19;20065;-57
2023/03/07 07:41:49;;;;;;;0.10;0.10;;;;;;;2.16;61.43;99711.53;7357216;19;20014;-58
2023/03/07 07:44:15;;;;;;;0.10;0.10;;;;;;;2.17;61.63;99713.25;7361714;19;20450;-58
2023/03/07 07:46:40;;;;;;;0.00;0.00;;;;;;;2.15;61.26;99702.09;7341747;19;20014;-58
2023/03/07 07:49:06;;;;;;;0.10;0.10;;;;;;;2.13;61.50;99700.38;7357794;19;20140;-58
2023/03/07 07:51:32;;;;;;;0.10;0.10;;;;;;;2.10;61.89;99701.28;7360468;19;20014;-58
2023/03/07 07:53:58;;;;;;;0.00;0.00;;;;;;;2.07;61.50;99703.84;7353623;19;20022;-58
2023/03/07 07:56:24;;;;;;;0.10;0.10;;;;;;;2.06;61.53;99697.00;7351083;19;21008;-60
2023/03/07 07:58:49;;;;;;;0.10;0.10;;;;;;;2.05;61.69;99692.72;7357317;19;20036;-60
2023/03/07 08:01:22;;;;;;;0.00;0.00;;;;;;;1.95;61.97;99678.16;7360954;19;20350;-60
2023/03/07 08:03:48;;;;;;;0.10;0.10;;;;;;;1.90;61.94;99674.75;7357492;19;20397;-60
2023/03/07 08:06:20;;;;;;;0.10;0.10;;;;;;;2.03;61.88;99697.03;7360471;19;20003;-60
2023/03/07 08:08:47;;;;;;;0.00;0.00;;;;;;;2.04;62.24;99709.03;7353391;19;20010;-60
2023/03/07 08:11:13;;;;;;;0.10;0.10;;;;;;;2.03;61.95;99704.75;7355397;19;20022;-59
2023/03/07 08:13:39;;;;;;;0.10;0.10;;;;;;;2.10;62.43;99709.00;7361145;19;20021;-60
2023/03/07 08:16:23;;;;;;;0.00;0.00;;;;;;;2.17;62.08;99700.38;7358650;19;20011;-60
2023/03/07 08:18:54;;;;;;;0.00;0.00;;;;;;;2.31;62.43;99715.75;7358300;19;20380;-60
2023/03/07 08:21:20;;;;;;;0.00;0.00;;;;;;;2.43;62.34;99712.25;7359759;19;20034;-60
2023/03/07 08:23:46;;;;;;;0.10;0.10;;;;;;;2.57;62.33;99700.16;7360880;19;20473;-60
2023/03/07 08:26:12;;;;;;;0.10;0.10;;;;;;;2.71;62.59;99698.34;7359305;19;20018;-60
2023/03/07 08:28:38;;;;;;;0.10;0.10;;;;;;;2.88;62.16;99695.63;7358128;19;20599;-60
2023/03/07 08:31:11;;;;;;;0.10;0.10;;;;;;;3.06;62.13;99699.81;7355188;19;20011;-60
2023/03/07 08:33:37;;;;;;;0.10;0.10;;;;;;;3.14;62.02;99677.34;7357276;19;20505;-60
2023/03/07 08:36:03;;;;;;;0.10;0.10;;;;;;;3.41;62.27;99696.06;7358809;19;20010;-61
2023/03/07 08:38:29;;;;;;;0.00;0.00;;;;;;;3.57;62.18;99697.59;7356806;19;20566;-61
2023/03/07 08:40:58;;;;;;;0.10;0.10;;;;;;;3.77;62.17;99698.25;7359842;19;21447;-61
2023/03/07 08:43:24;;;;;;;0.00;0.00;;;;;;;3.87;62.06;99681.78;7358634;19;20010;-61
2023/03/07 08:45:51;;;;;;;0.10;0.10;;;;;;;4.10;61.65;99693.53;7358394;19;20006;-61
2023/03/07 08:48:18;;;;;;;0.00;0.00;;;;;;;4.17;61.83;99679.69;7355921;19;20040;-61
2023/03/07 08:50:43;;;;;;;0.00;0.00;;;;;;;4.43;61.50;99703.44;7358740;19;20110;-60
2023/03/07 08:53:09;;;;;;;0.00;0.00;;;;;;;4.64;61.40;99704.88;7361203;19;20039;-60
2023/03/07 08:55:35;;;;;;;0.10;0.10;;;;;;;4.82;61.72;99706.34;7343652;19;20829;-61
2023/03/07 08:58:00;;;;;;;0.10;0.10;;;;;;;5.03;61.64;99709.47;7360919;19;20437;-61
2023/03/07 09:00:26;;;;;;;0.10;0.10;;;;;;;5.20;61.45;99700.53;7355844;19;21366;-61
2023/03/07 09:02:53;;;;;;;0.10;0.10;;;;;;;5.44;61.47;99707.03;7359253;19;20022;-61
2023/03/07 09:05:19;;;;;;;0.00;0.00;;;;;;;5.68;61.37;99716.09;7359585;19;20041;-60
2023/03/07 09:07:44;;;;;;;0.10;0.10;;;;;;;5.90;60.91;99706.16;7355835;19;20018;-61
2023/03/07 09:10:10;;;;;;;0.08;0.08;;;;;;;6.14;60.75;99709.19;7361714;19;20846;-61
2023/03/07 09:12:36;;;;;;;0.00;0.00;;;;;;;6.39;60.81;99717.31;7358935;19;20010;-60
2023/03/07 09:15:01;;;;;;;0.00;0.00;;;;;;;6.62;60.52;99715.06;7360016;19;20103;-61
2023/03/07 09:17:27;;;;;;;0.00;0.00;;;;;;;6.87;60.38;99712.75;7357041;19;20043;-61
2023/03/07 09:19:52;;;;;;;0.10;0.10;;;;;;;7.11;59.86;99706.13;7360499;19;20074;-61
2023/03/07 09:22:17;;;;;;;0.10;0.10;;;;;;;7.35;60.04;99704.66;7358419;19;20006;-61
2023/03/07 09:24:43;;;;;;;0.00;0.00;;;;;;;7.38;59.80;99678.59;7360262;19;20022;-61
2023/03/07 09:27:10;;;;;;;0.00;0.00;;;;;;;7.76;59.12;99708.78;7355537;19;20695;-61
2023/03/07 09:29:35;;;;;;;0.00;0.00;;;;;;;7.98;58.67;99709.03;7357177;19;20023;-61
2023/03/07 09:32:04;;;;;;;0.00;0.00;;;;;;;8.23;58.43;99714.38;7357437;19;20011;-61
2023/03/07 09:34:30;;;;;;;0.00;0.00;;;;;;;8.39;58.05;99707.00;7357451;19;20014;-60
2023/03/07 09:36:56;;;;;;;0.00;0.00;;;;;;;8.61;57.71;99709.81;7355956;19;20546;-61
2023/03/07 09:39:21;;;;;;;0.00;0.00;;;;;;;8.84;57.77;99703.91;7360268;19;20043;-60
2023/03/07 09:42:04;;;;;;;0.05;0.05;;;;;;;9.18;58.71;99708.03;7359439;19;20070;-61
2023/03/07 09:44:48;;;;;;;0.10;0.10;;;;;;;9.45;58.19;99711.47;7356684;19;20015;-61
2023/03/07 09:47:42;;;;;;;0.00;0.00;;;;;;;9.74;58.76;99718.28;7358964;19;20023;-61
2023/03/07 09:50:37;;;;;;;0.00;0.00;;;;;;;9.95;57.79;99701.88;7249263;19;2004531;-61
2023/03/07 09:53:04;;;;;;;0.00;0.00;;;;;;;10.17;56.02;99701.09;7251322;19;2004264;-61
2023/03/07 09:55:31;;;;;;;0.00;0.00;;;;;;;10.42;55.33;99709.72;7354538;19;20082;-61
2023/03/07 09:58:03;;;;;;;0.10;0.10;;;;;;;10.69;55.22;99705.19;7358628;19;20093;-61
2023/03/07 10:00:40;;;;;;;0.00;0.00;;;;;;;10.95;54.84;99708.53;7362386;19;20473;-61
2023/03/07 10:03:37;;;;;;;0.10;0.10;;;;;;;11.21;55.92;99702.28;7361524;19;20381;-60
2023/03/07 10:06:15;;;;;;;;;;;;;;;11.51;59.13;99701.00;7263454;19;2004169;-61
2023/03/07 10:08:40;;;;;;;0.00;0.00;;;;;;;11.62;53.01;99705.78;7362910;19;19929;-61
2023/03/07 10:11:12;;;;;;;0.00;0.00;;;;;;;11.85;53.24;99696.94;7365050;19;20007;-61
2023/03/07 10:14:16;;;;;;;0.10;0.10;;;;;;;12.12;56.17;99703.59;7364459;19;20010;-61
2023/03/07 10:16:57;;;;;;;0.10;0.10;;;;;;;12.37;54.55;99702.47;7261048;19;2003989;-60
2023/03/07 10:19:28;;;;;;;0.00;0.00;;;;;;;12.44;51.16;99706.50;7362131;19;20011;-61
2023/03/07 10:22:09;;;;;;;0.03;0.03;;;;;;;12.61;50.58;99696.06;7365525;19;20037;-60
2023/03/07 10:25:01;;;;;;;0.00;0.00;;;;;;;12.85;53.68;99685.34;7363684;19;20459;-61
2023/03/07 10:27:29;;;;;;;0.00;0.00;;;;;;;13.11;50.69;99703.28;7260445;19;2004364;-61
2023/03/07 10:29:58;;;;;;;0.05;0.05;;;;;;;13.27;50.33;99684.19;7364309;19;20035;-61
2023/03/07 10:32:42;;;;;;;0.00;0.00;;;;;;;13.49;51.73;99669.09;7363046;19;20010;-61
2023/03/07 10:35:10;;;;;;;0.10;0.10;;;;;;;13.80;49.30;99699.84;7363008;19;20014;-61
2023/03/07 10:37:42;;;;;;;0.05;0.05;;;;;;;13.99;50.35;99679.59;7362516;19;20540;-61
2023/03/07 10:40:22;;;;;;;0.10;0.10;;;;;;;14.20;49.46;99674.97;7361973;19;20014;-61
2023/03/07 10:42:47;;;;;;;0.10;0.10;;;;;;;14.46;47.07;99693.69;7360396;19;20055;-61
2023/03/07 10:45:13;;;;;;;0.10;0.10;;;;;;;14.68;47.38;99696.84;7364909;19;23425;-61
2023/03/07 10:47:39;;;;;;;0.00;0.00;;;;;;;14.94;47.76;99700.66;7361165;19;20014;-61
2023/03/07 10:50:25;;;;;;;0.00;0.00;;;;;;;15.43;51.36;99704.88;7363353;19;22196;-61
2023/03/07 10:52:57;;;;;;;0.00;0.00;;;;;;;15.69;47.48;99703.38;7260726;19;2004302;-61
2023/03/07 10:55:28;;;;;;;0.00;0.00;;;;;;;16.02;47.03;99695.22;7361436;19;20026;-61
2023/03/07 10:57:53;;;;;;;0.10;0.10;;;;;;;16.23;44.63;99695.69;7361452;19;20019;-61
2023/03/07 11:00:19;;;;;;;0.10;0.10;;;;;;;16.52;43.49;99704.38;7362311;19;20258;-61
2023/03/07 11:02:45;;;;;;;0.03;0.03;;;;;;;16.78;42.42;99701.00;7360425;19;20536;-61
2023/03/07 11:05:30;;;;;;;0.10;0.10;;;;;;;17.22;46.58;99697.22;7363518;19;20039;-61
2023/03/07 11:07:55;;;;;;;0.10;0.10;;;;;;;17.35;40.99;99695.47;7361488;19;20010;-61
2023/03/07 11:10:33;;;;;;;0.03;0.03;;;;;;;17.71;43.63;99711.59;7361898;19;21516;-61
2023/03/07 11:13:07;;;;;;;0.10;0.10;;;;;;;17.92;42.33;99714.59;7363626;19;20487;-61
2023/03/07 11:15:32;;;;;;;0.08;0.08;;;;;;;17.93;39.50;99700.41;7363162;19;20018;-61
2023/03/07 11:17:57;;;;;;;0.10;0.10;;;;;;;18.16;39.57;99712.88;7357500;19;20053;-61
2023/03/07 11:20:25;;;;;;;0.10;0.10;;;;;;;18.29;38.57;99708.41;7363434;19;20477;-61
2023/03/07 11:23:15;;;;;;;0.10;0.10;;;;;;;18.59;43.37;99710.69;7363662;19;20025;-60
2023/03/07 11:25:41;;;;;;;0.10;0.10;;;;;;;18.62;37.66;99704.34;7361161;19;20074;-61
2023/03/07 11:28:25;;;;;;;0.00;0.00;;;;;;;18.86;43.04;99694.66;7360624;19;20030;-61
2023/03/07 11:30:55;;;;;;;0.10;0.10;;;;;;;19.06;37.03;99708.22;7363501;19;20014;-61
2023/03/07 11:33:52;;;;;;;0.00;0.00;;;;;;;19.44;42.79;99703.56;7362872;19;20018;-61
2023/03/07 11:36:23;;;;;;;0.05;0.05;;;;;;;19.58;38.39;99704.34;7258423;19;2004344;-61
2023/03/07 11:39:19;;;;;;;0.10;0.10;;;;;;;19.80;38.66;99707.06;7361610;19;20035;-61
2023/03/07 11:41:53;;;;;;;0.10;0.10;;;;;;;19.98;36.44;99696.00;7260983;19;2004583;-61
2023/03/07 11:44:25;;;;;;;0.00;0.00;;;;;;;20.30;38.63;99699.63;7359575;19;20057;-61
2023/03/07 11:47:23;;;;;;;0.00;0.00;;;;;;;20.58;40.46;99700.09;7360558;19;20808;-61